aviador You're here:

PAHN Decoded Metar

HAINES in AK, USA
Report Time2017-07-23 07:54:00
UTC Time2017-07-23 08:42:27
Flight Rules mvfr MVFR
Wind070° at 06 kt
W.Decomp.*RWY 08: 5.2 kt HW 3 kt LCW
W.Rank070° ranks 8
Current wind is below 070° avg. (9.1)
Visibility9999 m
Phenomena:N/A
Clouds:Overcast 011 Hf
Expected CloudBase > 800 ft AGL from Temp-Dew spread
Ceiling1,100 ft
Temp13°C (ISA -2)
Dew Point11°C (88% RH)
AAT11.2°C
QNH1020 hPa
Density Alt-279 ft
Elevation16 ft
Report Wrong Elevation
Raw Report
PAHN 230754Z AUTO 07006KT 10SM OVC011 13/11 A3012 RMK AO2 RAE07
SLP202 P0000 T01280111 TSNO=

Extra information for PAHN:More info

Metar Taf Metar & Taf Last 4 Metars F.Rules Stats Wind Profile Meteogram Temp Stats Airport Information Weather charts Add Link Nearby VenuesMetar ALERT Operation Metar Decoded Social comments

AIRNAV info for PAHN